createdAt,value
2019-04-16T00:01:13.886Z,18.43
2019-04-16T00:06:18.951Z,21.90
2019-04-16T00:11:24.692Z,21.60
2019-04-16T00:16:25.898Z,24.43
2019-04-16T00:21:38.394Z,19.37
2019-04-16T00:26:40.880Z,19.57
2019-04-16T00:31:43.881Z,25.00
2019-04-16T00:36:48.441Z,23.87
2019-04-16T00:41:47.975Z,22.73
2019-04-16T00:46:49.100Z,23.97
2019-04-16T00:51:50.195Z,21.23
2019-04-16T00:56:51.376Z,21.40
2019-04-16T01:01:52.467Z,22.33
2019-04-16T01:06:53.567Z,20.27
2019-04-16T01:11:54.661Z,22.73
2019-04-16T01:16:55.757Z,20.47
2019-04-16T01:21:56.847Z,20.07
2019-04-16T01:26:59.067Z,20.20
2019-04-16T01:32:02.235Z,22.30
2019-04-16T01:37:25.526Z,20.80
2019-04-16T01:42:25.283Z,22.23
2019-04-16T01:47:26.399Z,26.63
2019-04-16T01:52:27.512Z,23.93
2019-04-16T01:57:30.775Z,23.20
2019-04-16T02:02:31.603Z,22.13
2019-04-16T02:07:32.699Z,27.63
2019-04-16T02:12:33.893Z,26.07
2019-04-16T02:17:34.977Z,24.07
2019-04-16T02:22:36.173Z,23.87
2019-04-16T02:27:37.256Z,25.70
2019-04-16T02:32:38.363Z,22.47
2019-04-16T02:37:40.046Z,23.50
2019-04-16T02:42:41.142Z,23.50
2019-04-16T02:47:42.541Z,24.47
2019-04-16T02:52:50.230Z,26.57
2019-04-16T02:58:00.271Z,22.17
2019-04-16T03:03:22.229Z,23.20
2019-04-16T03:08:22.754Z,22.50
2019-04-16T03:13:24.848Z,25.13
2019-04-16T03:18:36.875Z,25.33
2019-04-16T03:23:37.965Z,23.90
2019-04-16T03:28:39.051Z,24.87
2019-04-16T03:33:48.298Z,25.37
2019-04-16T03:38:43.156Z,23.83
2019-04-16T03:43:44.247Z,23.67
2019-04-16T03:48:45.525Z,30.30
2019-04-16T03:53:49.492Z,28.07
2019-04-16T03:58:49.623Z,27.37
2019-04-16T04:03:50.834Z,25.13
2019-04-16T04:08:53.300Z,24.03
2019-04-16T04:13:54.639Z,24.03
2019-04-16T04:18:55.742Z,22.77
2019-04-16T04:23:59.718Z,25.30
2019-04-16T04:28:59.824Z,27.40
2019-04-16T04:34:01.037Z,25.17
2019-04-16T04:39:08.945Z,23.53
2019-04-16T04:44:08.143Z,28.07
2019-04-16T04:49:09.270Z,27.07
2019-04-16T04:54:10.380Z,25.10
2019-04-16T04:59:13.096Z,26.57
2019-04-16T05:04:25.000Z,30.73
2019-04-16T05:09:29.213Z,28.93
2019-04-16T05:14:29.090Z,26.80
2019-04-16T05:19:30.186Z,30.50
2019-04-16T05:24:31.275Z,23.07
2019-04-16T05:29:32.355Z,24.30
2019-04-16T05:34:34.535Z,23.83
2019-04-16T05:39:36.552Z,27.03
2019-04-16T05:44:37.679Z,22.43
2019-04-16T05:49:38.791Z,24.07
2019-04-16T05:55:01.207Z,25.90
2019-04-16T06:00:03.373Z,21.70
2019-04-16T06:05:05.704Z,22.07
2019-04-16T06:10:07.503Z,23.30
2019-04-16T06:15:10.733Z,19.63
2019-04-16T06:20:20.758Z,20.77
2019-04-16T06:25:41.032Z,21.07
2019-04-16T06:30:47.259Z,20.10
2019-04-16T06:36:05.451Z,21.43
2019-04-16T06:41:11.197Z,23.87
2019-04-16T06:46:26.284Z,24.07
2019-04-16T06:51:32.235Z,22.97
2019-04-16T06:56:40.411Z,25.03
2019-04-16T07:01:58.254Z,24.30
2019-04-16T07:07:13.272Z,21.90
2019-04-16T07:12:16.275Z,23.60
2019-04-16T07:17:18.739Z,21.97
2019-04-16T07:22:21.215Z,19.67
2019-04-16T07:27:23.281Z,19.37
2019-04-16T07:32:26.587Z,20.07
2019-04-16T07:37:32.832Z,22.63
2019-04-16T07:42:52.158Z,20.40
2019-04-16T07:48:07.053Z,20.80
2019-04-16T07:53:27.061Z,22.10
2019-04-16T07:58:28.178Z,20.30
2019-04-16T08:03:29.267Z,21.93
2019-04-16T08:08:30.387Z,26.20
2019-04-16T08:13:34.337Z,31.17
2019-04-16T08:18:37.521Z,25.63
2019-04-16T08:23:43.499Z,22.80
2019-04-16T08:28:44.602Z,21.30
2019-04-16T08:33:45.700Z,26.33
2019-04-16T08:38:47.004Z,22.03
2019-04-16T08:43:48.103Z,32.10
2019-04-16T08:48:52.362Z,28.07
2019-04-16T08:53:52.268Z,24.63
2019-04-16T08:58:57.099Z,25.67
2019-04-16T09:04:01.529Z,21.27
2019-04-16T09:09:12.952Z,25.23
2019-04-16T09:14:05.573Z,21.27
2019-04-16T09:19:08.600Z,24.43
2019-04-16T09:24:23.731Z,22.60
2019-04-16T09:29:29.751Z,23.63
2019-04-16T09:34:41.627Z,20.97
2019-04-16T09:40:01.307Z,24.23
2019-04-16T09:45:05.795Z,20.23
2019-04-16T09:50:11.161Z,19.07
2019-04-16T09:55:10.519Z,22.73
2019-04-16T10:00:17.338Z,18.87
2019-04-16T10:05:17.150Z,17.73
2019-04-16T10:10:18.248Z,17.10
2019-04-16T10:15:19.348Z,19.57
2019-04-16T10:20:20.779Z,19.13
2019-04-16T10:25:22.155Z,20.03
2019-04-16T10:30:25.252Z,20.07
2019-04-16T10:35:26.441Z,20.80
2019-04-16T10:40:29.537Z,19.80
2019-04-16T10:45:49.415Z,19.67
2019-04-16T10:50:55.456Z,19.43
2019-04-16T10:56:10.766Z,18.13
2019-04-16T11:01:19.811Z,17.53
2019-04-16T11:06:22.855Z,17.17
2019-04-16T11:11:24.051Z,19.90
2019-04-16T11:16:25.454Z,17.10
2019-04-16T11:21:26.648Z,22.13
2019-04-16T11:26:28.032Z,20.70
2019-04-16T11:31:29.456Z,18.17
2019-04-16T11:36:31.695Z,16.63
2019-04-16T11:41:33.075Z,16.60
2019-04-16T11:46:34.484Z,16.20
2019-04-16T11:51:35.596Z,16.93
2019-04-16T11:56:36.881Z,16.47
2019-04-16T12:01:46.122Z,15.07
2019-04-16T12:07:05.090Z,14.07
2019-04-16T12:12:06.386Z,14.50
2019-04-16T12:17:18.453Z,14.70
2019-04-16T12:22:38.162Z,12.65
2019-04-16T12:27:44.235Z,10.98
2019-04-16T12:33:07.442Z,12.37
2019-04-16T12:38:18.861Z,11.33
2019-04-16T12:43:30.804Z,11.47
2019-04-16T12:48:33.933Z,10.47
2019-04-16T12:53:54.224Z,11.57
2019-04-16T12:59:03.540Z,10.13
2019-04-16T13:04:06.544Z,11.63
2019-04-16T13:09:29.846Z,10.83
2019-04-16T13:14:37.713Z,11.80
2019-04-16T13:19:46.608Z,11.50
2019-04-16T13:24:49.622Z,11.87
2019-04-16T13:29:50.820Z,11.03
2019-04-16T13:34:54.026Z,11.30
2019-04-16T13:40:00.507Z,12.60
2019-04-16T13:45:21.682Z,11.20
2019-04-16T13:50:24.411Z,12.60
2019-04-16T13:55:30.331Z,11.43
2019-04-16T14:00:35.975Z,13.07
2019-04-16T14:05:38.415Z,9.37
2019-04-16T14:10:43.048Z,9.17
2019-04-16T14:15:44.767Z,8.27
2019-04-16T14:20:45.683Z,12.43
2019-04-16T14:25:46.907Z,8.37
2019-04-16T14:30:48.841Z,7.67
2019-04-16T14:35:50.253Z,7.53
2019-04-16T14:40:51.367Z,9.23
2019-04-16T14:45:59.383Z,12.70
2019-04-16T14:50:55.908Z,11.20
2019-04-16T14:56:01.244Z,7.27
2019-04-16T15:01:15.960Z,9.80
2019-04-16T15:06:35.852Z,8.30
2019-04-16T15:11:58.320Z,8.77
2019-04-16T15:17:17.192Z,7.60
2019-04-16T15:22:36.798Z,11.03
2019-04-16T15:27:49.582Z,11.47
2019-04-16T15:33:09.734Z,10.87
2019-04-16T15:38:18.619Z,13.43
2019-04-16T15:43:39.740Z,10.13
2019-04-16T15:49:01.358Z,12.73
2019-04-16T15:54:21.368Z,11.00
2019-04-16T15:59:24.378Z,12.97
2019-04-16T16:04:30.139Z,15.10
2019-04-16T16:09:42.071Z,11.63
2019-04-16T16:14:43.245Z,12.93
2019-04-16T16:19:44.376Z,12.37
2019-04-16T16:24:45.516Z,11.07
2019-04-16T16:29:46.681Z,14.97
2019-04-16T16:34:47.921Z,10.83
2019-04-16T16:39:49.253Z,14.43
2019-04-16T16:44:50.366Z,16.17
2019-04-16T16:49:51.592Z,14.50
2019-04-16T16:54:55.113Z,15.83
2019-04-16T17:00:14.765Z,16.87
2019-04-16T17:05:17.772Z,14.80
2019-04-16T17:10:18.882Z,11.73
2019-04-16T17:15:20.088Z,11.10
2019-04-16T17:20:22.063Z,12.70
2019-04-16T17:25:35.516Z,13.70
2019-04-16T17:30:26.957Z,10.30
2019-04-16T17:35:28.164Z,12.07
2019-04-16T17:40:46.508Z,16.30
2019-04-16T17:46:04.652Z,13.97
2019-04-16T17:51:19.645Z,12.23
2019-04-16T17:56:39.210Z,10.83
2019-04-16T18:01:44.987Z,15.93
2019-04-16T18:06:48.044Z,13.43
2019-04-16T18:11:51.056Z,11.97
2019-04-16T18:16:55.463Z,11.00
2019-04-16T18:22:03.820Z,17.73
2019-04-16T18:27:19.027Z,21.50
2019-04-16T18:32:22.851Z,15.90
2019-04-16T18:37:32.351Z,16.10
2019-04-16T18:42:47.431Z,17.47
2019-04-16T18:48:04.917Z,18.20
2019-04-16T18:52:59.650Z,20.40
2019-04-16T18:58:01.101Z,19.50
2019-04-16T19:03:02.690Z,24.77
2019-04-16T19:08:05.710Z,18.13
2019-04-16T19:13:11.183Z,19.20
2019-04-16T19:18:19.745Z,15.07
2019-04-16T19:23:13.292Z,13.97
2019-04-16T19:28:14.657Z,19.00
2019-04-16T19:33:15.776Z,15.80
2019-04-16T19:38:18.242Z,19.37
2019-04-16T19:43:19.713Z,18.77
2019-04-16T19:48:34.519Z,17.37
2019-04-16T19:53:24.086Z,11.67
2019-04-16T19:58:25.537Z,12.47
2019-04-16T20:03:30.156Z,13.83
2019-04-16T20:08:34.515Z,13.83
2019-04-16T20:13:33.390Z,13.17
2019-04-16T20:18:49.976Z,21.50
2019-04-16T20:23:37.994Z,13.67
2019-04-16T20:28:39.294Z,16.57
2019-04-16T20:33:40.544Z,15.37
2019-04-16T20:38:41.743Z,13.83
2019-04-16T20:43:42.871Z,11.77
2019-04-16T20:48:45.018Z,10.63
2019-04-16T20:53:46.974Z,11.90
2019-04-16T20:58:48.086Z,12.07
2019-04-16T21:03:54.112Z,11.37
2019-04-16T21:08:57.163Z,10.90
2019-04-16T21:13:58.447Z,10.83
2019-04-16T21:18:59.592Z,8.43
2019-04-16T21:24:06.364Z,19.50
2019-04-16T21:29:21.297Z,10.10
2019-04-16T21:34:24.948Z,12.03
2019-04-16T21:39:33.318Z,13.33
2019-04-16T21:44:34.406Z,13.60
2019-04-16T21:49:38.834Z,13.03
2019-04-16T21:54:38.835Z,13.47
2019-04-16T21:59:40.142Z,11.77
2019-04-16T22:04:42.718Z,11.17
2019-04-16T22:09:45.179Z,10.87
2019-04-16T22:14:46.276Z,9.93
2019-04-16T22:19:54.338Z,10.67
2019-04-16T22:24:51.822Z,13.23
2019-04-16T22:29:53.376Z,12.37
2019-04-16T22:34:54.468Z,12.30
2019-04-16T22:40:00.445Z,14.73
2019-04-16T22:45:04.755Z,13.63
2019-04-16T22:50:16.443Z,14.23
2019-04-16T22:55:09.181Z,13.90
2019-04-16T23:00:15.587Z,16.03
2019-04-16T23:05:16.679Z,15.53
2019-04-16T23:10:20.725Z,14.10
2019-04-16T23:15:20.787Z,14.40
2019-04-16T23:20:29.087Z,11.77
2019-04-16T23:25:27.357Z,11.73
2019-04-16T23:30:27.892Z,11.87
2019-04-16T23:35:28.982Z,13.20
2019-04-16T23:40:30.082Z,12.43
2019-04-16T23:45:38.864Z,14.27
2019-04-16T23:50:45.139Z,14.57
2019-04-16T23:55:52.355Z,13.23
